Time;durP1;ratioP1;P1;durP2;ratioP2;P2;SDS_P1;SDS_P2;PMS_P1;PMS_P2;Temp;Humidity;BMP_temperature;BMP_pressure;BME280_temperature;BME280_humidity;BME280_pressure;Samples;Min_cycle;Max_cycle;Signal;HPM_P1;HPM_P2
2021/04/22 00:00:46;;;;;;;9.05;1.52;;;4.00;69.90;;;;;;5051985;28;20021;-45
2021/04/22 00:03:12;;;;;;;5.95;1.40;;;3.90;70.80;;;;;;5052110;28;20033;-46
2021/04/22 00:05:40;;;;;;;7.15;1.30;;;3.90;70.10;;;;;;5050740;28;20067;-45
2021/04/22 00:08:08;;;;;;;4.85;1.35;;;3.90;70.40;;;;;;5052040;28;20032;-45
2021/04/22 00:10:41;;;;;;;8.10;2.00;;;3.80;70.40;;;;;;5051919;28;20469;-45
2021/04/22 00:13:07;;;;;;;8.85;2.05;;;3.80;70.40;;;;;;5051895;28;20456;-46
2021/04/22 00:15:33;;;;;;;7.18;1.65;;;3.70;71.20;;;;;;5052006;28;20037;-46
2021/04/22 00:17:59;;;;;;;16.40;3.25;;;3.70;70.90;;;;;;5051692;28;20021;-45
2021/04/22 00:20:26;;;;;;;9.65;1.60;;;3.70;71.50;;;;;;5050586;28;20466;-45
2021/04/22 00:22:51;;;;;;;9.07;2.38;;;3.70;71.30;;;;;;5051920;28;20033;-45
2021/04/22 00:25:17;;;;;;;7.70;1.52;;;3.60;71.70;;;;;;5052747;28;20523;-47
2021/04/22 00:27:43;;;;;;;11.77;2.85;;;3.60;72.40;;;;;;5055334;28;20108;-46
2021/04/22 00:30:11;;;;;;;6.60;1.80;;;3.50;72.30;;;;;;5055671;28;20032;-44
2021/04/22 00:32:38;;;;;;;11.32;2.22;;;3.50;72.90;;;;;;5055006;28;20495;-46
2021/04/22 00:35:06;;;;;;;9.65;2.40;;;3.50;72.70;;;;;;5054233;28;20036;-44
2021/04/22 00:37:32;;;;;;;8.25;1.67;;;3.40;72.90;;;;;;5055377;28;20491;-45
2021/04/22 00:39:57;;;;;;;7.25;2.20;;;3.40;73.70;;;;;;5055223;28;20207;-46
2021/04/22 00:42:23;;;;;;;5.93;1.85;;;3.40;72.90;;;;;;5055005;28;20056;-45
2021/04/22 00:44:49;;;;;;;8.25;1.67;;;3.30;73.00;;;;;;5055315;28;20037;-45
2021/04/22 00:47:17;;;;;;;16.67;2.50;;;3.20;73.30;;;;;;5055068;28;20027;-45
2021/04/22 00:49:43;;;;;;;17.15;2.80;;;3.20;73.50;;;;;;5055071;28;20025;-45
2021/04/22 00:52:10;;;;;;;10.35;2.25;;;3.20;74.30;;;;;;5053816;28;20530;-46
2021/04/22 00:54:38;;;;;;;13.32;2.72;;;3.20;74.80;;;;;;5054960;28;20059;-45
2021/04/22 00:57:04;;;;;;;11.68;2.80;;;3.30;73.80;;;;;;5055036;28;20177;-45
2021/04/22 00:59:30;;;;;;;6.50;2.13;;;3.30;73.80;;;;;;5054919;28;20047;-45
2021/04/22 01:01:55;;;;;;;10.27;2.03;;;3.30;73.80;;;;;;5053546;28;20021;-45
2021/04/22 01:04:21;;;;;;;12.10;2.38;;;3.40;73.60;;;;;;5054889;28;20021;-45
2021/04/22 01:06:47;;;;;;;8.13;2.15;;;3.50;73.40;;;;;;5053547;28;20025;-46
2021/04/22 01:09:14;;;;;;;11.98;2.40;;;3.50;73.20;;;;;;5054796;28;20128;-47
2021/04/22 01:11:41;;;;;;;4.22;1.67;;;3.60;73.20;;;;;;5054617;28;20111;-44
2021/04/22 01:14:07;;;;;;;12.52;2.17;;;3.70;72.80;;;;;;5054675;28;20021;-45
2021/04/22 01:16:32;;;;;;;10.98;2.22;;;3.80;72.70;;;;;;5054653;28;20165;-45
2021/04/22 01:18:58;;;;;;;14.45;2.47;;;3.90;72.60;;;;;;5054563;28;20679;-45
2021/04/22 01:21:25;;;;;;;13.77;2.85;;;4.00;72.10;;;;;;5053422;28;20059;-46
2021/04/22 01:23:51;;;;;;;10.15;1.92;;;4.20;71.70;;;;;;5054449;28;20025;-45
2021/04/22 01:26:22;;;;;;;13.02;2.08;;;4.30;71.60;;;;;;5054466;28;20465;-44
2021/04/22 01:28:48;;;;;;;10.25;2.25;;;4.40;71.00;;;;;;5054327;28;20421;-48
2021/04/22 01:31:14;;;;;;;7.45;2.40;;;4.40;70.90;;;;;;5054274;28;20029;-46
2021/04/22 01:33:40;;;;;;;6.55;1.90;;;4.50;70.50;;;;;;5054103;28;20036;-45
2021/04/22 01:36:07;;;;;;;9.25;1.73;;;4.60;70.30;;;;;;5053142;28;20029;-45
2021/04/22 01:38:33;;;;;;;12.40;1.98;;;4.70;70.30;;;;;;5053720;28;20025;-46
2021/04/22 01:40:59;;;;;;;14.02;2.90;;;4.80;69.90;;;;;;5053907;28;20048;-46
2021/04/22 01:43:27;;;;;;;12.57;2.80;;;4.90;69.80;;;;;;5053994;28;20033;-45
2021/04/22 01:45:53;;;;;;;5.25;2.13;;;4.90;69.60;;;;;;5054116;28;20059;-46
2021/04/22 01:48:18;;;;;;;10.38;2.30;;;5.00;69.40;;;;;;5053796;28;20025;-46
2021/04/22 01:50:44;;;;;;;15.93;2.72;;;5.00;69.20;;;;;;5052776;28;20460;-46
2021/04/22 01:53:10;;;;;;;8.45;2.33;;;5.10;69.10;;;;;;5053490;28;20033;-45
2021/04/22 01:55:42;;;;;;;4.95;1.77;;;5.10;69.00;;;;;;5053841;28;20048;-45
2021/04/22 01:58:11;;;;;;;9.25;2.40;;;5.20;69.10;;;;;;5053500;28;20036;-45
2021/04/22 02:00:43;;;;;;;13.50;2.10;;;5.20;69.00;;;;;;5053886;28;20063;-45
2021/04/22 02:03:08;;;;;;;11.80;2.60;;;5.20;68.90;;;;;;5053442;28;20028;-47
2021/04/22 02:05:35;;;;;;;7.95;2.00;;;5.30;69.00;;;;;;5052553;28;20025;-46
2021/04/22 02:08:01;;;;;;;13.32;1.90;;;5.30;69.10;;;;;;5053638;28;20323;-47
2021/04/22 02:10:26;;;;;;;8.85;2.13;;;5.30;68.80;;;;;;5053490;28;20060;-46
2021/04/22 02:12:52;;;;;;;8.30;2.38;;;5.30;68.90;;;;;;5068482;28;20025;-45
2021/04/22 02:15:24;;;;;;;12.80;3.40;;;5.40;69.00;;;;;;5053539;28;20099;-45
2021/04/22 02:17:50;;;;;;;9.88;2.05;;;5.40;69.00;;;;;;5053532;28;20028;-46
2021/04/22 02:20:17;;;;;;;9.68;2.03;;;5.40;69.20;;;;;;5052066;28;20503;-49
2021/04/22 02:22:42;;;;;;;5.82;2.10;;;5.40;69.30;;;;;;5053451;28;20127;-46
2021/04/22 02:25:11;;;;;;;14.48;3.17;;;5.50;69.30;;;;;;5053242;28;20029;-47
2021/04/22 02:27:38;;;;;;;13.27;2.47;;;5.50;69.30;;;;;;5053295;28;20035;-45
2021/04/22 02:30:12;;;;;;;10.15;2.08;;;5.40;69.20;;;;;;5053246;28;20474;-46
2021/04/22 02:32:39;;;;;;;9.57;2.38;;;5.50;69.40;;;;;;5068574;28;20033;-46
2021/04/22 02:35:08;;;;;;;12.48;3.40;;;5.50;69.40;;;;;;5051891;28;20464;-45
2021/04/22 02:37:34;;;;;;;14.80;3.75;;;5.50;69.70;;;;;;5053236;28;20083;-47
2021/04/22 02:40:00;;;;;;;15.00;3.03;;;5.50;69.60;;;;;;5052861;28;20033;-46
2021/04/22 02:42:25;;;;;;;9.93;2.05;;;5.50;69.80;;;;;;5053026;28;20053;-46
2021/04/22 02:44:51;;;;;;;10.23;2.90;;;5.50;69.70;;;;;;5052914;28;20392;-46
2021/04/22 02:47:16;;;;;;;13.20;2.58;;;5.50;69.80;;;;;;5053126;28;20472;-46
2021/04/22 02:49:42;;;;;;;8.27;2.30;;;5.50;69.70;;;;;;5052123;28;20439;-45
2021/04/22 02:52:08;;;;;;;7.70;2.45;;;5.50;69.80;;;;;;5051433;28;20033;-46
2021/04/22 02:54:34;;;;;;;10.05;2.45;;;5.50;70.00;;;;;;5052755;28;20025;-47
2021/04/22 02:57:00;;;;;;;7.85;2.70;;;5.50;69.90;;;;;;5052762;28;20025;-45
2021/04/22 02:59:25;;;;;;;9.82;3.20;;;5.50;70.00;;;;;;5052750;28;20029;-45
2021/04/22 03:01:51;;;;;;;9.60;2.33;;;5.40;70.20;;;;;;5052751;28;20033;-45
2021/04/22 03:04:16;;;;;;;8.15;2.17;;;5.40;70.10;;;;;;5052705;28;20035;-46
2021/04/22 03:06:42;;;;;;;8.07;2.30;;;5.40;70.20;;;;;;5051889;28;20037;-46
2021/04/22 03:09:07;;;;;;;12.70;2.95;;;5.40;70.30;;;;;;5052499;28;20037;-46
2021/04/22 03:11:33;;;;;;;10.63;2.28;;;5.30;70.10;;;;;;5052644;28;20464;-46
2021/04/22 03:13:58;;;;;;;9.85;2.42;;;5.30;70.40;;;;;;5052249;28;20461;-47
2021/04/22 03:16:24;;;;;;;10.75;2.05;;;5.20;70.50;;;;;;5052716;28;20018;-46
2021/04/22 03:18:49;;;;;;;8.20;2.83;;;5.20;70.80;;;;;;5052494;28;20507;-45
2021/04/22 03:21:15;;;;;;;9.45;2.70;;;5.20;70.90;;;;;;5051265;28;20108;-48
2021/04/22 03:23:40;;;;;;;13.18;3.13;;;5.20;71.10;;;;;;5052446;28;20025;-46
2021/04/22 03:26:06;;;;;;;7.80;2.30;;;5.20;71.10;;;;;;5052440;28;20025;-46
2021/04/22 03:28:31;;;;;;;14.18;2.72;;;5.20;71.10;;;;;;5052432;28;20033;-46
2021/04/22 03:30:57;;;;;;;12.93;3.10;;;5.20;71.20;;;;;;5052350;28;20021;-45
2021/04/22 03:33:22;;;;;;;13.88;2.55;;;5.20;71.20;;;;;;5052328;28;20061;-46
2021/04/22 03:35:50;;;;;;;12.80;2.38;;;5.20;71.20;;;;;;5047772;28;20025;-46
2021/04/22 03:38:15;;;;;;;11.77;2.58;;;5.20;71.40;;;;;;5051364;28;20088;-45
2021/04/22 03:40:41;;;;;;;17.50;3.65;;;5.20;71.60;;;;;;5041685;28;20151;-50
2021/04/22 03:43:07;;;;;;;11.90;2.67;;;5.20;71.30;;;;;;5031917;28;20029;-45
2021/04/22 03:45:32;;;;;;;11.93;2.42;;;5.20;71.50;;;;;;5032012;28;20052;-48
2021/04/22 03:47:57;;;;;;;12.32;3.35;;;5.20;71.50;;;;;;5032044;28;20026;-46
2021/04/22 03:50:23;;;;;;;9.13;2.78;;;5.20;71.40;;;;;;5031126;28;20439;-45
2021/04/22 03:52:49;;;;;;;20.23;3.85;;;5.30;72.10;;;;;;5051833;28;20112;-45
2021/04/22 03:55:17;;;;;;;15.40;3.67;;;5.30;72.00;;;;;;5051898;28;20049;-45
2021/04/22 03:57:43;;;;;;;12.93;2.83;;;5.30;71.80;;;;;;5051981;28;20064;-54
2021/04/22 04:00:11;;;;;;;14.25;2.95;;;5.30;72.10;;;;;;5052461;28;20032;-50
2021/04/22 04:02:37;;;;;;;10.93;2.45;;;5.30;72.30;;;;;;5055955;28;20103;-47
2021/04/22 04:05:03;;;;;;;11.73;2.47;;;5.30;72.00;;;;;;5054499;28;20370;-49
2021/04/22 04:07:29;;;;;;;13.93;3.25;;;5.40;72.40;;;;;;5055705;28;20079;-50
2021/04/22 04:09:54;;;;;;;9.90;2.47;;;5.40;72.20;;;;;;5055609;28;20040;-52
2021/04/22 04:12:20;;;;;;;11.02;2.90;;;5.40;72.50;;;;;;5055567;28;20147;-49
2021/04/22 04:14:45;;;;;;;8.32;2.58;;;5.40;72.20;;;;;;5055537;28;20108;-50
2021/04/22 04:17:11;;;;;;;17.23;3.88;;;5.40;72.40;;;;;;5049383;28;20029;-54
2021/04/22 04:19:37;;;;;;;15.20;2.40;;;5.50;72.40;;;;;;5034834;28;20052;-50
2021/04/22 04:22:02;;;;;;;13.70;2.72;;;5.50;72.70;;;;;;5033767;28;20453;-52
2021/04/22 04:24:28;;;;;;;10.45;2.42;;;5.50;72.40;;;;;;5035465;28;20468;-50
2021/04/22 04:26:53;;;;;;;8.90;2.65;;;5.60;72.30;;;;;;5035362;28;20108;-52
2021/04/22 04:29:19;;;;;;;12.68;2.15;;;5.60;72.40;;;;;;5035002;28;20163;-54
2021/04/22 04:31:44;;;;;;;10.45;2.70;;;5.60;72.10;;;;;;5035161;28;20079;-53
2021/04/22 04:34:10;;;;;;;12.15;2.20;;;5.70;72.40;;;;;;5034925;28;20038;-49
2021/04/22 04:36:35;;;;;;;11.55;2.92;;;5.80;72.20;;;;;;5033792;28;20365;-54
2021/04/22 04:39:01;;;;;;;11.02;2.53;;;5.90;72.00;;;;;;5034947;28;20409;-51
2021/04/22 04:41:27;;;;;;;9.68;2.55;;;6.00;71.70;;;;;;5034808;28;20041;-53
2021/04/22 04:43:52;;;;;;;6.93;1.98;;;6.00;71.60;;;;;;5034800;28;20075;-50
2021/04/22 04:46:18;;;;;;;8.73;2.10;;;6.20;71.60;;;;;;5034889;28;20029;-52
2021/04/22 04:48:47;;;;;;;11.18;2.53;;;6.30;71.10;;;;;;5035098;28;20033;-53
2021/04/22 04:51:13;;;;;;;10.93;2.05;;;6.50;70.80;;;;;;5040693;28;20099;-55
2021/04/22 04:53:39;;;;;;;14.10;2.55;;;6.60;70.60;;;;;;5054805;28;20037;-51
2021/04/22 04:56:04;;;;;;;10.75;2.50;;;6.70;70.30;;;;;;5054731;28;20372;-56
2021/04/22 04:58:30;;;;;;;9.82;2.45;;;6.80;70.10;;;;;;5054863;28;20083;-49
2021/04/22 05:00:56;;;;;;;6.82;2.53;;;6.80;69.80;;;;;;5054608;28;20377;-49
2021/04/22 05:03:21;;;;;;;14.70;3.20;;;6.90;69.70;;;;;;5054611;28;20044;-50
2021/04/22 05:05:46;;;;;;;9.82;2.85;;;7.10;69.70;;;;;;5053078;28;20050;-51
2021/04/22 05:08:12;;;;;;;11.80;2.75;;;7.20;69.20;;;;;;5054399;28;20029;-48
2021/04/22 05:10:37;;;;;;;11.98;3.00;;;7.60;68.80;;;;;;5073243;28;20025;-50
2021/04/22 05:13:03;;;;;;;10.23;2.45;;;8.00;68.00;;;;;;5073369;28;20037;-49
2021/04/22 05:15:29;;;;;;;7.45;2.60;;;8.20;67.00;;;;;;5074330;28;20017;-51
2021/04/22 05:17:55;;;;;;;4.28;1.80;;;8.50;66.50;;;;;;5062641;28;20381;-53
2021/04/22 05:20:20;;;;;;;10.52;2.10;;;9.10;65.60;;;;;;5052389;28;20036;-49
2021/04/22 05:22:46;;;;;;;10.18;2.10;;;9.30;64.80;;;;;;5054226;28;20025;-50
2021/04/22 05:25:12;;;;;;;13.88;2.50;;;9.20;64.00;;;;;;5054023;28;20033;-46
2021/04/22 05:27:38;;;;;;;12.60;2.58;;;9.30;64.50;;;;;;5053167;28;20186;-49
2021/04/22 05:30:05;;;;;;;12.43;2.55;;;9.30;64.30;;;;;;5054167;28;20021;-46
2021/04/22 05:32:31;;;;;;;7.53;1.85;;;9.30;64.20;;;;;;5053922;28;20550;-50
2021/04/22 05:34:57;;;;;;;10.70;2.25;;;9.30;63.50;;;;;;5052759;28;20025;-49
2021/04/22 05:37:22;;;;;;;8.60;2.42;;;9.60;63.90;;;;;;5053820;28;20477;-50
2021/04/22 05:39:48;;;;;;;10.15;2.03;;;9.80;63.70;;;;;;5054184;28;20496;-51
2021/04/22 05:42:14;;;;;;;10.20;2.85;;;9.90;62.70;;;;;;5053612;28;20048;-48
2021/04/22 05:44:42;;;;;;;8.88;2.45;;;10.10;62.70;;;;;;5053916;28;20028;-49
2021/04/22 05:47:08;;;;;;;11.10;2.63;;;10.30;62.30;;;;;;5053610;28;20464;-44
2021/04/22 05:49:33;;;;;;;9.43;2.13;;;10.40;61.80;;;;;;5053792;28;20024;-49
2021/04/22 05:51:59;;;;;;;8.63;2.47;;;11.00;60.80;;;;;;5052279;28;20044;-50
2021/04/22 05:54:24;;;;;;;10.00;2.50;;;11.50;59.70;;;;;;5053653;28;20032;-48
2021/04/22 05:56:50;;;;;;;9.15;2.30;;;12.10;59.00;;;;;;5053759;28;20067;-46
2021/04/22 05:59:15;;;;;;;9.90;2.33;;;12.50;58.00;;;;;;5053686;28;20028;-48
2021/04/22 06:01:41;;;;;;;5.60;1.90;;;12.90;56.90;;;;;;5054142;28;20021;-50
2021/04/22 06:04:07;;;;;;;6.28;2.08;;;13.50;55.50;;;;;;5053366;28;20033;-50
2021/04/22 06:06:33;;;;;;;8.27;2.83;;;13.80;55.50;;;;;;5052534;28;20381;-56
2021/04/22 06:08:58;;;;;;;10.20;2.58;;;13.90;55.20;;;;;;5053593;28;20025;-50
2021/04/22 06:11:24;;;;;;;9.45;2.17;;;14.30;54.60;;;;;;5053165;28;20041;-52
2021/04/22 06:13:49;;;;;;;10.20;2.72;;;14.20;54.00;;;;;;5053377;28;20180;-55
2021/04/22 06:16:15;;;;;;;7.88;2.25;;;14.20;54.40;;;;;;5053115;28;20028;-50
2021/04/22 06:18:40;;;;;;;5.88;2.00;;;14.50;54.10;;;;;;5053288;28;20021;-53
2021/04/22 06:21:06;;;;;;;9.32;2.22;;;14.80;53.90;;;;;;5052015;28;20017;-51
2021/04/22 06:23:31;;;;;;;7.00;2.40;;;15.20;53.00;;;;;;5053048;28;20372;-56
2021/04/22 06:25:57;;;;;;;8.85;2.60;;;15.10;51.70;;;;;;5053056;28;20071;-55
2021/04/22 06:28:23;;;;;;;9.18;2.40;;;15.10;52.40;;;;;;5053122;28;20029;-52
2021/04/22 06:30:49;;;;;;;7.72;2.90;;;15.10;52.70;;;;;;5053057;28;20199;-53
2021/04/22 06:33:15;;;;;;;11.00;2.78;;;15.20;53.60;;;;;;5052687;28;20476;-44
2021/04/22 06:35:40;;;;;;;8.68;2.35;;;15.00;51.90;;;;;;5051936;28;20028;-43
2021/04/22 06:38:06;;;;;;;9.30;2.45;;;14.90;52.40;;;;;;5053095;28;20036;-44
2021/04/22 06:40:32;;;;;;;5.32;2.00;;;14.80;52.50;;;;;;5052522;28;20060;-47
2021/04/22 06:42:57;;;;;;;6.57;2.50;;;14.60;52.70;;;;;;5052963;28;20481;-44
2021/04/22 06:45:23;;;;;;;9.68;2.58;;;15.00;52.40;;;;;;5052681;28;20025;-43
2021/04/22 06:47:49;;;;;;;6.90;2.17;;;16.20;51.10;;;;;;5052925;28;20037;-45
2021/04/22 06:50:18;;;;;;;10.13;2.75;;;17.60;49.20;;;;;;5051732;28;20545;-43
2021/04/22 06:52:44;;;;;;;10.38;2.47;;;17.70;48.20;;;;;;5052495;28;20036;-45
2021/04/22 06:55:17;;;;;;;6.50;2.13;;;18.80;47.70;;;;;;5052921;28;20025;-45
2021/04/22 06:57:42;;;;;;;9.07;2.40;;;19.20;47.00;;;;;;5052675;28;20472;-44
2021/04/22 07:00:13;;;;;;;11.70;2.40;;;19.80;46.60;;;;;;5052807;28;20029;-44
2021/04/22 07:02:39;;;;;;;8.32;2.63;;;21.00;45.00;;;;;;5052210;28;20055;-45
2021/04/22 07:05:06;;;;;;;8.57;2.15;;;21.00;44.10;;;;;;5051783;28;20045;-44
2021/04/22 07:07:32;;;;;;;5.03;2.20;;;20.60;44.40;;;;;;5052393;28;20025;-47
2021/04/22 07:09:57;;;;;;;4.70;1.70;;;20.60;45.10;;;;;;5052620;28;20028;-45
2021/04/22 07:12:23;;;;;;;13.38;2.28;;;20.40;44.60;;;;;;5052260;28;20041;-44
2021/04/22 07:14:48;;;;;;;7.32;2.13;;;21.10;44.20;;;;;;5052618;28;20291;-46
2021/04/22 07:17:14;;;;;;;8.63;2.97;;;20.90;44.10;;;;;;5052336;28;20055;-44
2021/04/22 07:19:40;;;;;;;7.93;2.65;;;20.30;43.60;;;;;;5051929;28;20029;-45
2021/04/22 07:22:05;;;;;;;9.32;2.40;;;19.80;43.70;;;;;;5051709;28;20029;-48
2021/04/22 07:24:32;;;;;;;8.75;3.10;;;19.80;43.90;;;;;;5052379;28;20572;-48
2021/04/22 07:26:57;;;;;;;8.25;2.00;;;19.40;44.60;;;;;;5052352;28;20104;-46
2021/04/22 07:29:23;;;;;;;8.57;2.30;;;19.80;44.20;;;;;;5052268;28;20103;-47
2021/04/22 07:31:49;;;;;;;5.07;2.38;;;19.00;44.20;;;;;;5052043;28;20029;-45
2021/04/22 07:34:14;;;;;;;6.90;2.30;;;18.20;45.00;;;;;;5052073;28;20651;-47
2021/04/22 07:36:40;;;;;;;7.35;2.03;;;17.60;45.70;;;;;;5054654;28;20025;-44
2021/04/22 07:39:06;;;;;;;5.57;2.05;;;17.60;45.70;;;;;;5056544;28;20055;-45
2021/04/22 07:41:31;;;;;;;9.13;2.40;;;18.40;45.40;;;;;;5056089;28;20384;-43
2021/04/22 07:43:57;;;;;;;5.93;2.30;;;18.10;45.00;;;;;;5056422;28;20079;-43
2021/04/22 07:46:23;;;;;;;5.97;2.00;;;17.50;45.40;;;;;;5056217;28;20044;-43
2021/04/22 07:48:48;;;;;;;5.97;2.58;;;16.70;46.10;;;;;;5056142;28;20483;-43
2021/04/22 07:51:13;;;;;;;9.77;2.72;;;16.50;46.30;;;;;;5055220;28;20025;-44
2021/04/22 07:53:39;;;;;;;8.65;2.50;;;16.70;46.20;;;;;;5056020;28;20037;-43
2021/04/22 07:56:05;;;;;;;12.65;2.60;;;18.30;45.20;;;;;;5056047;28;20036;-44
2021/04/22 07:58:31;;;;;;;5.78;2.20;;;19.80;44.00;;;;;;5056043;28;20056;-48
2021/04/22 08:00:58;;;;;;;8.77;2.50;;;19.80;43.30;;;;;;5056011;28;20044;-51
2021/04/22 08:03:24;;;;;;;6.30;2.22;;;18.80;43.80;;;;;;5055782;28;20036;-47
2021/04/22 08:05:55;;;;;;;6.68;2.28;;;18.00;44.40;;;;;;5054793;28;20029;-48
2021/04/22 08:08:21;;;;;;;11.52;2.85;;;17.30;44.90;;;;;;5055935;28;20361;-47
2021/04/22 08:10:48;;;;;;;6.90;2.40;;;17.80;44.50;;;;;;5055805;28;20036;-44
2021/04/22 08:13:15;;;;;;;11.10;2.42;;;17.70;44.90;;;;;;5071078;28;20358;-45
2021/04/22 08:15:43;;;;;;;6.93;2.58;;;17.50;44.80;;;;;;5055625;28;20017;-47
2021/04/22 08:18:09;;;;;;;6.75;2.58;;;17.60;44.70;;;;;;5055675;28;20162;-43
2021/04/22 08:20:36;;;;;;;10.90;3.13;;;18.50;44.00;;;;;;5054507;28;20092;-46
2021/04/22 08:23:05;;;;;;;5.90;2.05;;;20.10;42.50;;;;;;5055517;28;20460;-45
2021/04/22 08:25:45;;;;;;;6.43;2.53;;;21.60;41.40;;;;;;5055612;28;20025;-44
2021/04/22 08:28:14;;;;;;;9.25;2.47;;;21.70;40.50;;;;;;5055291;28;20075;-49
2021/04/22 08:30:49;;;;;;;12.52;3.05;;;21.70;39.30;;;;;;5055465;28;20021;-49
2021/04/22 08:33:16;;;;;;;7.82;2.47;;;20.20;40.10;;;;;;5055232;28;20535;-46
2021/04/22 08:35:43;;;;;;;5.82;2.08;;;18.70;41.70;;;;;;5069736;28;20067;-49
2021/04/22 08:38:10;;;;;;;5.25;1.90;;;18.20;42.90;;;;;;5055238;28;20025;-44
2021/04/22 08:40:36;;;;;;;12.25;2.50;;;18.70;42.50;;;;;;5055045;28;20041;-45
2021/04/22 08:43:02;;;;;;;7.30;2.22;;;18.90;42.30;;;;;;5055057;28;20086;-45
2021/04/22 08:45:28;;;;;;;5.70;2.10;;;19.90;41.70;;;;;;5055404;28;20413;-46
2021/04/22 08:47:53;;;;;;;11.20;2.63;;;20.80;41.10;;;;;;5053670;28;20128;-47
2021/04/22 08:50:23;;;;;;;5.85;2.47;;;21.80;39.80;;;;;;5054194;28;20032;-45
2021/04/22 08:52:52;;;;;;;6.90;2.30;;;21.90;39.50;;;;;;5035040;28;20036;-47
2021/04/22 08:55:21;;;;;;;9.70;2.10;;;22.40;38.90;;;;;;5035003;28;20466;-45
2021/04/22 08:57:48;;;;;;;7.88;2.00;;;22.00;39.10;;;;;;5034938;28;20025;-44
2021/04/22 09:00:20;;;;;;;6.25;2.30;;;21.10;39.90;;;;;;5035050;28;20025;-45
2021/04/22 09:02:45;;;;;;;5.30;2.00;;;20.90;40.10;;;;;;5034780;28;20382;-46
2021/04/22 09:05:13;;;;;;;6.93;2.33;;;20.00;40.50;;;;;;5033904;28;20034;-44
2021/04/22 09:07:39;;;;;;;6.68;2.25;;;19.80;40.70;;;;;;5034726;28;20064;-45
2021/04/22 09:10:06;;;;;;;8.10;2.35;;;19.00;40.70;;;;;;5038387;28;20030;-46
2021/04/22 09:12:33;;;;;;;8.50;1.85;;;18.80;41.00;;;;;;5074420;28;20082;-49
2021/04/22 09:15:03;;;;;;;5.22;1.90;;;18.50;41.50;;;;;;5074771;28;20020;-45
2021/04/22 09:17:29;;;;;;;9.00;2.08;;;18.20;41.70;;;;;;5074560;28;20412;-45
2021/04/22 09:19:55;;;;;;;4.70;1.90;;;17.70;41.90;;;;;;5073670;28;20095;-46
2021/04/22 09:22:36;;;;;;;6.63;1.83;;;17.20;42.50;;;;;;5074259;28;20103;-47
2021/04/22 09:25:14;;;;;;;7.68;2.00;;;17.30;42.70;;;;;;5074554;28;20087;-45
2021/04/22 09:27:40;;;;;;;12.52;2.78;;;17.10;42.80;;;;;;5074272;28;20024;-45
2021/04/22 09:30:07;;;;;;;6.85;1.83;;;17.10;42.90;;;;;;5074428;28;20026;-48
2021/04/22 09:32:36;;;;;;;8.30;2.10;;;17.20;42.90;;;;;;5073868;28;20035;-47
2021/04/22 09:35:10;;;;;;;5.80;1.98;;;17.10;42.90;;;;;;5073227;28;20062;-45
2021/04/22 09:37:41;;;;;;;4.38;1.67;;;17.70;42.50;;;;;;5073941;28;20055;-46
2021/04/22 09:40:22;;;;;;;6.72;1.80;;;18.40;41.70;;;;;;5074278;28;20052;-47
2021/04/22 09:42:48;;;;;;;6.35;2.10;;;18.70;41.50;;;;;;5073822;28;20049;-44
2021/04/22 09:45:16;;;;;;;8.10;2.38;;;19.50;41.00;;;;;;5074044;28;20108;-47
2021/04/22 09:47:42;;;;;;;10.07;2.05;;;19.80;40.60;;;;;;5073710;28;20025;-43
2021/04/22 09:50:14;;;;;;;4.28;1.40;;;20.20;39.80;;;;;;5073092;28;20421;-45
2021/04/22 09:52:43;;;;;;;5.95;1.80;;;20.30;39.30;;;;;;5054093;28;20060;-45
2021/04/22 09:57:44;;;;;;;4.15;1.60;;;20.30;39.30;;;;;;5167624;22;20527;-44
2021/04/22 10:00:14;;;;;;;6.63;1.98;;;20.40;39.00;;;;;;5033730;28;20079;-45
2021/04/22 10:02:57;;;;;;;4.30;1.45;;;20.50;39.00;;;;;;5033617;28;20504;-45
2021/04/22 10:05:25;;;;;;;4.95;1.83;;;19.60;39.60;;;;;;5032837;28;20519;-45
2021/04/22 10:08:12;;;;;;;6.57;1.80;;;18.50;40.80;;;;;;5033424;28;20040;-44
2021/04/22 10:10:54;;;;;;;7.93;2.17;;;17.80;41.50;;;;;;5033380;28;20386;-47
2021/04/22 10:13:20;;;;;;;7.93;2.03;;;17.20;42.10;;;;;;5015745;28;20125;-45
2021/04/22 10:15:52;;;;;;;6.82;1.80;;;16.70;42.40;;;;;;5033521;28;20113;-43
2021/04/22 10:18:17;;;;;;;5.88;1.58;;;16.30;42.70;;;;;;5033544;28;20060;-45
2021/04/22 10:20:43;;;;;;;9.38;1.98;;;16.00;43.00;;;;;;5032496;28;20033;-46
2021/04/22 10:23:10;;;;;;;9.10;2.13;;;15.60;43.30;;;;;;5033166;28;20029;-44
2021/04/22 10:25:39;;;;;;;6.10;1.73;;;15.50;43.90;;;;;;5033390;28;20449;-47
2021/04/22 10:28:13;;;;;;;5.63;1.83;;;15.60;44.00;;;;;;5033317;28;20033;-44
2021/04/22 10:30:43;;;;;;;7.75;1.50;;;15.70;44.00;;;;;;5033366;28;20358;-45
2021/04/22 10:33:09;;;;;;;8.95;1.70;;;15.60;44.60;;;;;;5033164;28;20043;-47
2021/04/22 10:35:38;;;;;;;7.35;1.50;;;15.50;43.70;;;;;;5032128;28;20056;-43
2021/04/22 10:38:04;;;;;;;9.88;1.65;;;15.30;43.70;;;;;;5033900;28;20038;-50
2021/04/22 10:40:34;;;;;;;6.28;1.15;;;15.20;43.70;;;;;;5016725;28;20120;-45
2021/04/22 10:43:02;;;;;;;3.40;1.35;;;15.30;43.90;;;;;;5033691;28;20075;-46
2021/04/22 10:45:29;;;;;;;5.78;1.33;;;15.50;43.70;;;;;;5033200;28;20041;-43
2021/04/22 10:47:55;;;;;;;5.80;1.25;;;15.80;43.60;;;;;;5032756;28;20431;-46
2021/04/22 10:50:27;;;;;;;5.28;1.15;;;15.90;42.90;;;;;;5032131;28;20021;-44
2021/04/22 10:52:54;;;;;;;5.28;1.27;;;16.00;42.60;;;;;;5052457;28;20029;-44
2021/04/22 10:55:26;;;;;;;3.08;1.23;;;16.10;42.80;;;;;;5052902;28;20025;-44
2021/04/22 10:57:54;;;;;;;9.82;1.73;;;16.10;43.00;;;;;;5052100;28;20095;-45
2021/04/22 11:00:24;;;;;;;3.15;1.40;;;16.10;42.70;;;;;;5052654;28;20492;-45
2021/04/22 11:02:52;;;;;;;6.40;1.40;;;16.10;42.70;;;;;;5052369;28;20036;-44
2021/04/22 11:05:24;;;;;;;5.13;1.40;;;16.10;42.50;;;;;;5051832;28;20071;-47
2021/04/22 11:07:55;;;;;;;5.78;1.30;;;16.10;42.60;;;;;;5052387;28;20048;-48
2021/04/22 11:10:20;;;;;;;5.25;1.40;;;16.10;42.50;;;;;;5029992;28;20032;-46
2021/04/22 11:12:46;;;;;;;4.30;1.38;;;16.30;41.80;;;;;;5032356;28;20025;-43
2021/04/22 11:15:21;;;;;;;4.20;1.02;;;16.20;41.80;;;;;;5032477;28;20025;-51
2021/04/22 11:17:46;;;;;;;4.03;1.23;;;16.20;42.10;;;;;;5032507;28;20392;-46
2021/04/22 11:20:18;;;;;;;4.65;1.50;;;15.90;42.50;;;;;;5013973;28;20022;-47
2021/04/22 11:22:46;;;;;;;12.07;1.75;;;15.90;42.70;;;;;;5032410;28;20034;-46
2021/04/22 11:25:18;;;;;;;5.35;1.20;;;15.80;42.40;;;;;;5032370;28;20033;-47
2021/04/22 11:27:52;;;;;;;4.20;1.20;;;15.90;42.50;;;;;;5032265;28;20103;-47
2021/04/22 11:30:31;;;;;;;4.43;1.33;;;15.90;42.30;;;;;;5032412;28;20033;-47
2021/04/22 11:32:59;;;;;;;3.60;1.13;;;15.70;42.30;;;;;;5032010;28;20484;-45
2021/04/22 11:35:30;;;;;;;3.55;1.30;;;15.50;42.70;;;;;;5031434;28;20469;-44
2021/04/22 11:38:04;;;;;;;3.63;0.95;;;15.40;43.00;;;;;;5032399;28;20040;-46
2021/04/22 11:40:45;;;;;;;4.88;1.63;;;15.40;43.20;;;;;;5032327;28;20044;-44
2021/04/22 11:43:24;;;;;;;3.08;1.20;;;15.40;45.00;;;;;;5032209;28;20025;-44
2021/04/22 11:45:52;;;;;;;2.47;1.10;;;15.30;45.30;;;;;;5032128;28;20108;-43
2021/04/22 11:48:19;;;;;;;4.45;1.20;;;15.20;45.80;;;;;;5029210;28;20068;-46
2021/04/22 11:50:46;;;;;;;6.55;1.20;;;15.20;45.80;;;;;;5034270;28;20029;-44
2021/04/22 11:53:12;;;;;;;9.05;1.27;;;15.30;45.30;;;;;;5051938;28;20045;-43
2021/04/22 11:55:48;;;;;;;4.90;1.20;;;15.40;45.40;;;;;;5051705;28;20530;-50
2021/04/22 11:58:25;;;;;;;3.67;1.02;;;15.40;45.30;;;;;;5051996;28;20025;-44
2021/04/22 12:01:05;;;;;;;5.88;1.55;;;15.30;45.20;;;;;;5031895;28;20030;-44
2021/04/22 12:03:36;;;;;;;7.43;1.20;;;15.10;44.80;;;;;;5031382;28;20036;-44
2021/04/22 12:06:14;;;;;;;8.45;1.88;;;14.80;44.70;;;;;;5030376;28;20033;-44
2021/04/22 12:08:42;;;;;;;4.82;1.13;;;14.50;44.70;;;;;;5031870;28;20076;-44
2021/04/22 12:11:10;;;;;;;4.22;1.10;;;14.20;45.00;;;;;;5031566;28;20064;-46
2021/04/22 12:13:37;;;;;;;4.97;1.25;;;14.00;45.90;;;;;;5031494;28;20487;-47
2021/04/22 12:16:05;;;;;;;4.95;1.17;;;13.80;46.60;;;;;;5031975;28;20022;-47
2021/04/22 12:18:32;;;;;;;3.35;1.00;;;13.90;46.80;;;;;;5031208;28;20032;-44
2021/04/22 12:21:11;;;;;;;6.13;1.02;;;14.10;46.80;;;;;;5030565;28;20057;-43
2021/04/22 12:23:46;;;;;;;5.38;1.48;;;14.20;47.20;;;;;;5035355;28;20473;-44
2021/04/22 12:26:17;;;;;;;3.47;0.97;;;13.80;47.20;;;;;;5035220;28;20029;-45
2021/04/22 12:28:54;;;;;;;4.60;1.10;;;13.80;47.40;;;;;;5035265;28;20351;-45
2021/04/22 12:31:32;;;;;;;8.38;1.33;;;13.80;47.50;;;;;;5034735;28;20021;-44
2021/04/22 12:34:23;;;;;;;3.58;1.40;;;13.80;47.20;;;;;;5035158;28;20025;-43
2021/04/22 12:37:02;;;;;;;6.63;1.60;;;13.80;46.60;;;;;;5034099;28;20388;-46
2021/04/22 12:39:29;;;;;;;2.78;0.95;;;13.90;47.10;;;;;;5035151;28;20025;-44
2021/04/22 12:42:07;;;;;;;4.72;1.33;;;14.20;46.80;;;;;;5034977;28;20109;-43
2021/04/22 12:44:33;;;;;;;4.65;1.50;;;14.40;46.10;;;;;;5035172;28;20064;-44
2021/04/22 12:47:11;;;;;;;5.85;1.10;;;14.60;45.50;;;;;;5017085;28;20473;-43
2021/04/22 12:49:50;;;;;;;6.55;1.20;;;14.70;44.60;;;;;;5034158;28;20389;-44
2021/04/22 12:52:26;;;;;;;4.75;1.23;;;14.50;44.30;;;;;;5050814;28;20492;-44